Aeroporto :
LOGIN :

Iscrizione | Disclaimer

   EN    FR    IT 

 










Sommario :    VFR   VFR Marginale   IFR   IFR Intensivo   IFR Molto Intensivo
Visibilità : 
Base nubi : 
>= 8 km
>= 3000ft
5 / 8 km
1000 / 3000 ft
1500m / 5 km
500 / 1000 ft
800 / 1500m
200 / 500 ft
< 800m
< 200 ft
Simboli :   Temporali  Nebbia  Neve Forte  Precipitazioni Forti  Vento > 20 kt
SIGMETs :   Varie  Temporali  Ghiacco  Turbolenza  Onda orograficha  Ceneri Vulcaniche






- Altitudine del aeroporto : 453 ft
- Codice IATA : SBK


LFRT - St Brieuc Armor

ULTIMO METAR :
  • 141430Z AUTO 02006KT 340V050 9999 FEW015 SCT140 BKN160 12/09 Q1024

METARs OBSOLETI :
  • 141400Z AUTO 05009KT 9999 FEW015 SCT033 OVC160 12/08 Q1024
  • 141330Z AUTO 04010KT 9999 FEW030 BKN160 12/08 Q1024
  • 141300Z AUTO 03009KT 350V050 9999 FEW018 SCT035 13/08 Q1025
  • 141230Z AUTO 03006KT 320V070 9999 FEW018 13/08 Q1025
  • 141200Z AUTO 05006KT 360V080 9999 FEW019 13/08 Q1025
  • 141130Z AUTO 07005KT 010V130 9999 BKN018 13/08 Q1025
  • 141100Z AUTO 03007KT 340V070 9999 SCT017 13/08 Q1026
  • 141030Z AUTO 01004KT 320V060 9999 BKN018 12/08 Q1026
  • 141000Z AUTO 02005KT 300V070 9999 SCT018 12/07 Q1026

Previsioni scadute.



MetMap, La meteo Aeronautica in un colpo d'occhio ! - Copyright ORBIFLY Dicembre 2007 - Disclaimer

ORBIFLY MET'MAP TEAM :

Programmazione e sviluppo : Alexandra Zaïnal
Concezione : Baudouin d'Aumeries
Supporto tecnico e logistico : Manuel Goepfert
Aiuto : Marc-Olivier Méhu
Aiuto per la traduzione : Arnaldo La Scala




FONTI E CREDITI :

   NOAA